Centerville, MA (02632)

8:18 AM EDT on July 23, 2016 (GMT -0400)
KMACENTE2 | | Change Station

Elev 80 ft 41.68 °N, 70.37 °W | Updated 14 seconds ago

Partly Cloudy
Partly Cloudy
75.6 °F
Feels Like 73 °F
N
2.0
Wind Variable Wind from NW
Gusts 7.0 mph

Today
High -- | Low -- °F
--% Chance of Precip.
Yesterday
High -- | Low -- °F
Precip. -- in
Pressure 29.77 in
Visibility 7.0 miles
Clouds Few 600 ft
Heat Index 73 °F
Dew Point Not available.
Humidity Not available.
Rainfall 0.17 in
Snow Depth Not available.
5:27 AM 8:07 PM
Waning Gibbous, 85% visible
METAR KHYA 231156Z 23009KT 7SM FEW006 24/22 A2976 RMK AO2 SLP080 60028 70029 T02440222 10244 20217 50007
Pressure 29.77 in
Visibility 7.0 miles
Clouds Few 600 ft
Heat Index 73 °F
Dew Point Not available.
Humidity Not available.
Rainfall 0.17 in
Snow Depth Not available.
5:27 AM 8:07 PM
Waning Gibbous, 85% visible
METAR KHYA 231156Z 23009KT 7SM FEW006 24/22 A2976 RMK AO2 SLP080 60028 70029 T02440222 10244 20217 50007

10-Day Weather Forecast

Almanac

Astronomy

Jul. 23, 2016 Rise Set
Actual Time
Civil Twilight
Nautical Twilight
Astronomical Twilight
Moon
Length of Visible Light
Length of Day
Tomorrow will be .
, % of the Moon is Illuminated

Today's Extremes

State Highs State Lows

Community

WunderPhotos

Upload Photos

1,926,811 photos uploaded!

WunderBlog® & News

Nearby

Air Quality

  Air Quality AQ Index Pollutant
Not available.

Snow Depth

Station Depth Elevation

Earthquake Activity

City Distance Mag. Time & Date
Minimum magnitude displayed is 2.5.

Coastal Water Temperatures

Place Temperature

Stations

Nearby Weather Stations

Station Location Temp. Windchill Dew Point Humidity Wind Precip. Elev Updated Type
                   

Watches & Warnings

There are currently no watches in effect.